createdAt,value
2023-03-17T00:00:36.542Z,30.15
2023-03-17T08:20:53.308Z,32.45
2023-03-17T10:24:34.685Z,24.86
2023-03-17T10:28:34.186Z,23.21
2023-03-17T10:32:34.292Z,24.23
2023-03-17T10:36:34.193Z,24.51
2023-03-17T10:40:34.186Z,24.99
2023-03-17T10:44:34.196Z,25.19
2023-03-17T10:48:34.224Z,25.27
2023-03-17T10:52:34.191Z,25.48
2023-03-17T10:56:34.161Z,25.82
2023-03-17T11:00:34.221Z,25.86
2023-03-17T11:04:34.237Z,25.96
2023-03-17T11:08:34.200Z,26.12
2023-03-17T11:12:34.160Z,26.33
2023-03-17T11:16:34.264Z,26.62
2023-03-17T11:20:34.177Z,26.83
2023-03-17T11:24:34.222Z,26.83
2023-03-17T11:28:34.212Z,26.88
2023-03-17T11:32:34.287Z,27.00
2023-03-17T11:36:34.254Z,27.15
2023-03-17T11:40:34.212Z,27.14
2023-03-17T11:44:34.215Z,27.23
2023-03-17T11:48:34.212Z,27.33
2023-03-17T11:52:34.252Z,27.19
2023-03-17T11:56:34.222Z,27.29
2023-03-17T12:00:34.725Z,27.30
2023-03-17T12:04:33.795Z,27.38
2023-03-17T12:08:33.738Z,27.19
2023-03-17T12:12:33.579Z,27.11
2023-03-17T12:16:33.727Z,27.35
2023-03-17T12:20:34.081Z,27.34
2023-03-17T12:24:33.438Z,27.37
2023-03-17T12:28:33.723Z,27.39
2023-03-17T12:32:33.785Z,27.38
2023-03-17T12:36:33.224Z,27.38
2023-03-17T12:40:33.351Z,27.36
2023-03-17T12:44:33.065Z,27.32
2023-03-17T12:48:33.008Z,27.28
2023-03-17T12:52:32.954Z,27.25
2023-03-17T12:56:33.249Z,27.33
2023-03-17T13:00:32.824Z,27.35
2023-03-17T13:04:33.235Z,27.32
2023-03-17T13:08:32.754Z,27.32
2023-03-17T13:12:32.760Z,27.28
2023-03-17T13:16:32.817Z,27.22
2023-03-17T13:20:32.444Z,27.37
2023-03-17T13:24:32.371Z,27.43
2023-03-17T13:28:32.312Z,27.68
2023-03-17T13:32:32.361Z,29.85
2023-03-17T13:36:32.105Z,29.98
2023-03-17T13:40:32.793Z,29.74
2023-03-17T13:44:31.930Z,29.54
2023-03-17T13:48:32.261Z,29.29
2023-03-17T13:52:31.750Z,29.07
2023-03-17T13:56:32.751Z,29.00
2023-03-17T14:00:31.598Z,28.71
2023-03-17T14:04:32.048Z,28.66
2023-03-17T14:08:31.287Z,28.49
2023-03-17T14:12:31.263Z,28.27
2023-03-17T14:16:31.865Z,28.29
2023-03-17T14:20:31.285Z,28.12
2023-03-17T14:24:31.293Z,28.09
2023-03-17T14:28:31.277Z,28.09
2023-03-17T14:32:30.833Z,28.06
2023-03-17T14:36:30.998Z,28.06
2023-03-17T14:40:30.601Z,28.09
2023-03-17T14:44:30.777Z,28.07
2023-03-17T14:48:30.522Z,28.14
2023-03-17T14:52:30.499Z,28.49
2023-03-17T14:56:30.457Z,28.53
2023-03-17T15:00:30.485Z,28.42
2023-03-17T15:04:30.503Z,28.60
2023-03-17T15:08:30.811Z,28.43
2023-03-17T15:12:30.473Z,28.54
2023-03-17T15:16:30.589Z,28.65
2023-03-17T15:20:30.989Z,28.61
2023-03-17T15:24:30.791Z,28.78
2023-03-17T15:28:30.788Z,28.72
2023-03-17T15:32:30.870Z,28.41
2023-03-17T15:36:33.045Z,28.67
2023-03-17T15:40:30.784Z,29.05
2023-03-17T15:44:30.794Z,28.78
2023-03-17T15:48:30.242Z,29.00
2023-03-17T15:52:30.325Z,29.34
2023-03-17T15:56:29.911Z,29.15
2023-03-17T16:00:30.559Z,28.99
2023-03-17T16:04:29.988Z,29.05
2023-03-17T16:08:29.797Z,28.98
2023-03-17T16:12:29.811Z,28.98
2023-03-17T16:16:29.467Z,29.03
2023-03-17T16:20:29.722Z,29.05
2023-03-17T16:24:29.323Z,29.06
2023-03-17T16:28:28.918Z,29.04
2023-03-17T16:32:28.859Z,29.04
2023-03-17T16:36:28.923Z,29.02
2023-03-17T16:40:28.874Z,29.07
2023-03-17T16:44:28.385Z,28.98
2023-03-17T16:48:28.147Z,29.04
2023-03-17T16:52:27.986Z,29.02
2023-03-17T16:56:27.954Z,29.01
2023-03-17T17:00:27.689Z,29.05
2023-03-17T17:04:27.661Z,29.05
2023-03-17T17:08:27.726Z,29.04
2023-03-17T17:12:27.648Z,29.07
2023-03-17T17:16:27.678Z,29.08
2023-03-17T17:20:27.520Z,29.07
2023-03-17T17:24:27.493Z,29.10
2023-03-17T17:28:27.489Z,29.10
2023-03-17T17:32:27.492Z,29.09
2023-03-17T17:36:27.291Z,29.13
2023-03-17T17:40:27.161Z,29.13
2023-03-17T17:44:27.076Z,29.12
2023-03-17T17:48:26.935Z,29.12
2023-03-17T17:52:26.835Z,29.11
2023-03-17T17:56:26.756Z,29.08
2023-03-17T18:00:26.672Z,29.17
2023-03-17T18:04:26.650Z,29.20
2023-03-17T18:08:26.467Z,29.18
2023-03-17T18:12:26.361Z,29.21
2023-03-17T18:16:26.355Z,29.16
2023-03-17T18:20:26.209Z,29.27
2023-03-17T18:24:26.145Z,29.22
2023-03-17T18:28:26.088Z,29.25
2023-03-17T18:32:26.059Z,29.27
2023-03-17T18:36:25.995Z,29.30
2023-03-17T18:40:26.014Z,29.28
2023-03-17T18:44:25.942Z,29.31
2023-03-17T18:48:25.945Z,29.34
2023-03-17T18:52:25.908Z,29.36
2023-03-17T18:56:25.888Z,29.32
2023-03-17T19:00:25.885Z,29.34
2023-03-17T19:04:25.909Z,29.34
2023-03-17T19:08:25.921Z,29.32
2023-03-17T19:12:25.932Z,29.36
2023-03-17T19:16:25.979Z,29.36
2023-03-17T19:20:25.979Z,29.38
2023-03-17T19:24:25.999Z,29.34
2023-03-17T19:28:26.044Z,29.37
2023-03-17T19:32:26.057Z,29.39
2023-03-17T19:36:26.144Z,29.42
2023-03-17T19:40:26.192Z,29.38
2023-03-17T19:44:26.274Z,29.38
2023-03-17T19:48:26.347Z,29.45
2023-03-17T19:52:26.458Z,29.42
2023-03-17T19:56:26.509Z,29.40
2023-03-17T20:00:26.608Z,29.43
2023-03-17T20:04:26.827Z,29.48
2023-03-17T20:08:26.839Z,29.45
2023-03-17T20:12:26.934Z,29.44
2023-03-17T20:16:27.072Z,29.47
2023-03-17T20:20:27.193Z,29.49
2023-03-17T20:24:27.385Z,29.48
2023-03-17T20:28:29.994Z,29.54
2023-03-17T20:32:27.493Z,29.50
2023-03-17T20:36:27.361Z,29.53
2023-03-17T20:40:27.307Z,29.55
2023-03-17T20:44:27.216Z,29.58
2023-03-17T20:48:27.132Z,29.55
2023-03-17T20:52:29.484Z,29.59
2023-03-17T20:56:26.985Z,29.60
2023-03-17T21:00:26.888Z,29.57
2023-03-17T21:04:26.816Z,29.61
2023-03-17T21:08:26.713Z,29.61
2023-03-17T21:12:26.656Z,29.61
2023-03-17T21:16:26.687Z,29.66
2023-03-17T21:20:26.522Z,29.64
2023-03-17T21:24:26.433Z,29.66
2023-03-17T21:28:26.385Z,29.65
2023-03-17T21:32:26.262Z,29.69
2023-03-17T21:36:26.177Z,29.67
2023-03-17T21:40:26.154Z,29.68
2023-03-17T21:44:26.036Z,29.71
2023-03-17T21:48:26.019Z,29.68
2023-03-17T21:52:26.166Z,29.72
2023-03-17T21:56:26.133Z,29.72
2023-03-17T22:00:30.942Z,29.75
2023-03-17T22:04:26.044Z,29.68
2023-03-17T22:08:25.962Z,29.72
2023-03-17T22:12:25.811Z,29.64
2023-03-17T22:16:25.909Z,29.62
2023-03-17T22:20:25.646Z,29.70
2023-03-17T22:24:25.603Z,29.66
2023-03-17T22:28:25.509Z,29.64
2023-03-17T22:32:25.447Z,29.59
2023-03-17T22:36:25.336Z,29.68
2023-03-17T22:40:25.241Z,29.67
2023-03-17T22:44:25.144Z,29.66
2023-03-17T22:48:25.076Z,29.56
2023-03-17T22:52:25.028Z,29.64
2023-03-17T22:56:24.887Z,29.62
2023-03-17T23:00:24.833Z,29.64
2023-03-17T23:04:24.808Z,29.55
2023-03-17T23:08:24.718Z,29.64
2023-03-17T23:12:24.642Z,29.61
2023-03-17T23:16:24.625Z,29.55
2023-03-17T23:20:24.646Z,29.55
2023-03-17T23:24:24.493Z,29.59
2023-03-17T23:28:24.437Z,29.58
2023-03-17T23:32:24.365Z,29.59
2023-03-17T23:36:24.332Z,29.64
2023-03-17T23:40:24.236Z,29.65
2023-03-17T23:44:24.174Z,29.62
2023-03-17T23:48:24.137Z,29.63
2023-03-17T23:52:24.112Z,29.63
2023-03-17T23:56:24.008Z,29.65
